sensor_id;sensor_type;location;lat;lon;timestamp;P1;durP1;ratioP1;P2;durP2;ratioP2
18251;SDS011;26917;52.328;20.878;2022-09-25T00:01:27;36.95;;;21.58;;
18251;SDS011;26917;52.328;20.878;2022-09-25T00:03:56;33.67;;;21.58;;
18251;SDS011;26917;52.328;20.878;2022-09-25T00:06:26;40.30;;;21.20;;
18251;SDS011;26917;52.328;20.878;2022-09-25T00:08:55;38.70;;;20.98;;
18251;SDS011;26917;52.328;20.878;2022-09-25T00:11:26;31.23;;;20.58;;
18251;SDS011;26917;52.328;20.878;2022-09-25T00:13:55;34.40;;;20.33;;
18251;SDS011;26917;52.328;20.878;2022-09-25T00:16:25;40.47;;;22.67;;
18251;SDS011;26917;52.328;20.878;2022-09-25T00:18:56;36.78;;;22.08;;
18251;SDS011;26917;52.328;20.878;2022-09-25T00:21:43;35.78;;;21.75;;
18251;SDS011;26917;52.328;20.878;2022-09-25T00:24:17;33.95;;;21.45;;
18251;SDS011;26917;52.328;20.878;2022-09-25T00:26:45;38.75;;;22.23;;
18251;SDS011;26917;52.328;20.878;2022-09-25T00:29:14;36.58;;;22.17;;
18251;SDS011;26917;52.328;20.878;2022-09-25T00:31:45;32.40;;;20.13;;
18251;SDS011;26917;52.328;20.878;2022-09-25T00:34:13;31.08;;;20.20;;
18251;SDS011;26917;52.328;20.878;2022-09-25T00:36:43;34.95;;;20.38;;
18251;SDS011;26917;52.328;20.878;2022-09-25T00:39:11;38.97;;;21.58;;
18251;SDS011;26917;52.328;20.878;2022-09-25T00:41:40;38.60;;;21.10;;
18251;SDS011;26917;52.328;20.878;2022-09-25T00:47:27;36.85;;;21.05;;
18251;SDS011;26917;52.328;20.878;2022-09-25T00:50:10;44.00;;;21.98;;
18251;SDS011;26917;52.328;20.878;2022-09-25T00:52:48;40.58;;;22.65;;
18251;SDS011;26917;52.328;20.878;2022-09-25T00:55:19;37.13;;;22.33;;
18251;SDS011;26917;52.328;20.878;2022-09-25T00:57:49;40.85;;;22.88;;
18251;SDS011;26917;52.328;20.878;2022-09-25T01:00:20;39.17;;;23.08;;
18251;SDS011;26917;52.328;20.878;2022-09-25T01:02:50;41.47;;;23.83;;
18251;SDS011;26917;52.328;20.878;2022-09-25T01:05:20;46.47;;;23.25;;
18251;SDS011;26917;52.328;20.878;2022-09-25T01:07:54;42.50;;;24.48;;
18251;SDS011;26917;52.328;20.878;2022-09-25T01:10:24;42.67;;;25.10;;
18251;SDS011;26917;52.328;20.878;2022-09-25T01:12:53;38.25;;;24.15;;
18251;SDS011;26917;52.328;20.878;2022-09-25T01:15:25;45.40;;;24.45;;
18251;SDS011;26917;52.328;20.878;2022-09-25T01:18:00;40.90;;;24.95;;
18251;SDS011;26917;52.328;20.878;2022-09-25T01:20:40;44.92;;;25.48;;
18251;SDS011;26917;52.328;20.878;2022-09-25T01:26:27;41.28;;;25.80;;
18251;SDS011;26917;52.328;20.878;2022-09-25T01:29:12;41.95;;;26.58;;
18251;SDS011;26917;52.328;20.878;2022-09-25T01:31:45;39.97;;;24.88;;
18251;SDS011;26917;52.328;20.878;2022-09-25T01:34:21;40.42;;;23.85;;
18251;SDS011;26917;52.328;20.878;2022-09-25T01:36:55;47.10;;;24.85;;
18251;SDS011;26917;52.328;20.878;2022-09-25T01:39:29;40.45;;;24.52;;
18251;SDS011;26917;52.328;20.878;2022-09-25T01:42:02;44.13;;;25.05;;
18251;SDS011;26917;52.328;20.878;2022-09-25T01:44:39;40.28;;;23.35;;
18251;SDS011;26917;52.328;20.878;2022-09-25T01:47:13;43.45;;;25.75;;
18251;SDS011;26917;52.328;20.878;2022-09-25T01:49:48;49.28;;;26.67;;
18251;SDS011;26917;52.328;20.878;2022-09-25T01:52:21;44.30;;;24.55;;
18251;SDS011;26917;52.328;20.878;2022-09-25T01:54:53;48.17;;;24.98;;
18251;SDS011;26917;52.328;20.878;2022-09-25T01:57:26;41.53;;;25.63;;
18251;SDS011;26917;52.328;20.878;2022-09-25T02:00:05;47.25;;;25.00;;
18251;SDS011;26917;52.328;20.878;2022-09-25T02:02:40;41.20;;;25.13;;
18251;SDS011;26917;52.328;20.878;2022-09-25T02:05:12;44.22;;;24.88;;
18251;SDS011;26917;52.328;20.878;2022-09-25T02:07:46;41.85;;;24.42;;
18251;SDS011;26917;52.328;20.878;2022-09-25T02:10:19;50.97;;;26.50;;
18251;SDS011;26917;52.328;20.878;2022-09-25T02:12:53;42.92;;;26.58;;
18251;SDS011;26917;52.328;20.878;2022-09-25T02:15:27;46.15;;;26.05;;
18251;SDS011;26917;52.328;20.878;2022-09-25T02:17:59;44.75;;;26.35;;
18251;SDS011;26917;52.328;20.878;2022-09-25T02:20:48;45.50;;;25.40;;
18251;SDS011;26917;52.328;20.878;2022-09-25T02:23:24;45.55;;;26.00;;
18251;SDS011;26917;52.328;20.878;2022-09-25T02:25:59;43.25;;;26.90;;
18251;SDS011;26917;52.328;20.878;2022-09-25T02:28:32;44.03;;;26.90;;
18251;SDS011;26917;52.328;20.878;2022-09-25T02:31:02;42.90;;;25.23;;
18251;SDS011;26917;52.328;20.878;2022-09-25T02:33:34;46.42;;;26.45;;
18251;SDS011;26917;52.328;20.878;2022-09-25T02:36:04;44.58;;;25.80;;
18251;SDS011;26917;52.328;20.878;2022-09-25T02:38:33;44.70;;;26.25;;
18251;SDS011;26917;52.328;20.878;2022-09-25T02:41:03;45.53;;;25.67;;
18251;SDS011;26917;52.328;20.878;2022-09-25T02:43:42;47.15;;;26.95;;
18251;SDS011;26917;52.328;20.878;2022-09-25T02:46:22;51.00;;;26.52;;
18251;SDS011;26917;52.328;20.878;2022-09-25T02:49:01;47.40;;;28.23;;
18251;SDS011;26917;52.328;20.878;2022-09-25T02:51:39;43.92;;;26.73;;
18251;SDS011;26917;52.328;20.878;2022-09-25T02:54:15;55.47;;;29.23;;
18251;SDS011;26917;52.328;20.878;2022-09-25T02:56:48;45.53;;;27.73;;
18251;SDS011;26917;52.328;20.878;2022-09-25T02:59:31;51.70;;;29.90;;
18251;SDS011;26917;52.328;20.878;2022-09-25T03:02:04;46.17;;;27.35;;
18251;SDS011;26917;52.328;20.878;2022-09-25T03:04:33;45.50;;;27.08;;
18251;SDS011;26917;52.328;20.878;2022-09-25T03:07:04;48.78;;;28.75;;
18251;SDS011;26917;52.328;20.878;2022-09-25T03:09:33;48.25;;;28.80;;
18251;SDS011;26917;52.328;20.878;2022-09-25T03:12:02;53.63;;;29.05;;
18251;SDS011;26917;52.328;20.878;2022-09-25T03:14:31;52.25;;;28.20;;
18251;SDS011;26917;52.328;20.878;2022-09-25T03:17:00;52.75;;;29.23;;
18251;SDS011;26917;52.328;20.878;2022-09-25T03:19:32;53.88;;;29.23;;
18251;SDS011;26917;52.328;20.878;2022-09-25T03:22:01;44.83;;;26.77;;
18251;SDS011;26917;52.328;20.878;2022-09-25T03:24:30;45.08;;;27.75;;
18251;SDS011;26917;52.328;20.878;2022-09-25T03:26:58;48.97;;;28.80;;
18251;SDS011;26917;52.328;20.878;2022-09-25T03:29:27;48.70;;;27.75;;
18251;SDS011;26917;52.328;20.878;2022-09-25T03:31:56;51.97;;;29.38;;
18251;SDS011;26917;52.328;20.878;2022-09-25T03:34:25;49.90;;;29.58;;
18251;SDS011;26917;52.328;20.878;2022-09-25T03:36:54;50.33;;;29.13;;
18251;SDS011;26917;52.328;20.878;2022-09-25T03:39:22;47.70;;;28.70;;
18251;SDS011;26917;52.328;20.878;2022-09-25T03:41:51;51.78;;;28.65;;
18251;SDS011;26917;52.328;20.878;2022-09-25T03:44:19;51.72;;;29.00;;
18251;SDS011;26917;52.328;20.878;2022-09-25T03:46:47;53.03;;;27.83;;
18251;SDS011;26917;52.328;20.878;2022-09-25T03:49:15;46.03;;;28.05;;
18251;SDS011;26917;52.328;20.878;2022-09-25T03:51:44;55.15;;;29.92;;
18251;SDS011;26917;52.328;20.878;2022-09-25T03:54:13;48.78;;;28.00;;
18251;SDS011;26917;52.328;20.878;2022-09-25T03:56:42;47.10;;;28.42;;
18251;SDS011;26917;52.328;20.878;2022-09-25T03:59:10;52.33;;;28.52;;
18251;SDS011;26917;52.328;20.878;2022-09-25T04:01:38;50.50;;;29.00;;
18251;SDS011;26917;52.328;20.878;2022-09-25T04:04:08;48.65;;;27.92;;
18251;SDS011;26917;52.328;20.878;2022-09-25T04:06:36;52.03;;;28.80;;
18251;SDS011;26917;52.328;20.878;2022-09-25T04:09:04;48.03;;;27.92;;
18251;SDS011;26917;52.328;20.878;2022-09-25T04:11:34;50.97;;;28.75;;
18251;SDS011;26917;52.328;20.878;2022-09-25T04:14:03;48.03;;;28.50;;
18251;SDS011;26917;52.328;20.878;2022-09-25T04:16:32;45.40;;;27.60;;
18251;SDS011;26917;52.328;20.878;2022-09-25T04:19:00;52.05;;;27.90;;
18251;SDS011;26917;52.328;20.878;2022-09-25T04:21:28;54.33;;;28.17;;
18251;SDS011;26917;52.328;20.878;2022-09-25T04:23:57;51.70;;;29.17;;
18251;SDS011;26917;52.328;20.878;2022-09-25T04:26:44;48.15;;;28.75;;
18251;SDS011;26917;52.328;20.878;2022-09-25T04:29:12;54.00;;;28.52;;
18251;SDS011;26917;52.328;20.878;2022-09-25T04:31:41;57.15;;;28.33;;
18251;SDS011;26917;52.328;20.878;2022-09-25T04:34:10;48.35;;;28.27;;
18251;SDS011;26917;52.328;20.878;2022-09-25T04:36:37;50.17;;;28.17;;
18251;SDS011;26917;52.328;20.878;2022-09-25T04:39:06;50.75;;;28.58;;
18251;SDS011;26917;52.328;20.878;2022-09-25T04:41:34;52.00;;;28.73;;
18251;SDS011;26917;52.328;20.878;2022-09-25T04:44:04;52.35;;;29.00;;
18251;SDS011;26917;52.328;20.878;2022-09-25T04:46:35;52.10;;;29.23;;
18251;SDS011;26917;52.328;20.878;2022-09-25T04:49:03;49.28;;;28.58;;
18251;SDS011;26917;52.328;20.878;2022-09-25T04:51:32;58.03;;;29.17;;
18251;SDS011;26917;52.328;20.878;2022-09-25T04:54:00;50.05;;;29.30;;
18251;SDS011;26917;52.328;20.878;2022-09-25T04:56:29;48.45;;;27.63;;
18251;SDS011;26917;52.328;20.878;2022-09-25T04:58:57;44.55;;;28.08;;
18251;SDS011;26917;52.328;20.878;2022-09-25T05:01:27;47.42;;;28.67;;
18251;SDS011;26917;52.328;20.878;2022-09-25T05:03:55;48.20;;;28.15;;
18251;SDS011;26917;52.328;20.878;2022-09-25T05:06:24;46.13;;;28.60;;
18251;SDS011;26917;52.328;20.878;2022-09-25T05:08:52;55.78;;;30.05;;
18251;SDS011;26917;52.328;20.878;2022-09-25T05:11:22;47.78;;;27.88;;
18251;SDS011;26917;52.328;20.878;2022-09-25T05:13:50;48.35;;;26.70;;
18251;SDS011;26917;52.328;20.878;2022-09-25T05:16:21;45.83;;;27.88;;
18251;SDS011;26917;52.328;20.878;2022-09-25T05:18:51;51.85;;;28.58;;
18251;SDS011;26917;52.328;20.878;2022-09-25T05:21:19;49.05;;;28.33;;
18251;SDS011;26917;52.328;20.878;2022-09-25T05:23:47;48.00;;;28.55;;
18251;SDS011;26917;52.328;20.878;2022-09-25T05:26:16;48.38;;;28.40;;
18251;SDS011;26917;52.328;20.878;2022-09-25T05:28:47;49.30;;;27.95;;
18251;SDS011;26917;52.328;20.878;2022-09-25T05:31:15;47.70;;;26.75;;
18251;SDS011;26917;52.328;20.878;2022-09-25T05:33:46;45.75;;;27.65;;
18251;SDS011;26917;52.328;20.878;2022-09-25T05:36:18;48.55;;;27.60;;
18251;SDS011;26917;52.328;20.878;2022-09-25T05:38:46;55.05;;;28.67;;
18251;SDS011;26917;52.328;20.878;2022-09-25T05:41:14;45.20;;;27.35;;
18251;SDS011;26917;52.328;20.878;2022-09-25T05:43:44;46.55;;;27.52;;
18251;SDS011;26917;52.328;20.878;2022-09-25T05:46:13;43.40;;;25.88;;
18251;SDS011;26917;52.328;20.878;2022-09-25T05:48:42;46.47;;;27.42;;
18251;SDS011;26917;52.328;20.878;2022-09-25T05:51:10;48.75;;;28.42;;
18251;SDS011;26917;52.328;20.878;2022-09-25T05:53:40;54.72;;;29.45;;
18251;SDS011;26917;52.328;20.878;2022-09-25T05:56:08;57.15;;;29.60;;
18251;SDS011;26917;52.328;20.878;2022-09-25T05:58:36;57.13;;;30.80;;
18251;SDS011;26917;52.328;20.878;2022-09-25T06:01:05;57.42;;;29.83;;
18251;SDS011;26917;52.328;20.878;2022-09-25T06:03:33;56.78;;;29.52;;
18251;SDS011;26917;52.328;20.878;2022-09-25T06:06:02;52.00;;;29.40;;
18251;SDS011;26917;52.328;20.878;2022-09-25T06:08:30;51.17;;;28.02;;
18251;SDS011;26917;52.328;20.878;2022-09-25T06:11:03;48.58;;;26.90;;
18251;SDS011;26917;52.328;20.878;2022-09-25T06:13:33;47.08;;;27.02;;
18251;SDS011;26917;52.328;20.878;2022-09-25T06:16:02;45.75;;;26.98;;
18251;SDS011;26917;52.328;20.878;2022-09-25T06:18:32;50.17;;;27.67;;
18251;SDS011;26917;52.328;20.878;2022-09-25T06:21:00;49.97;;;27.40;;
18251;SDS011;26917;52.328;20.878;2022-09-25T06:23:30;49.90;;;27.60;;
18251;SDS011;26917;52.328;20.878;2022-09-25T06:25:59;51.65;;;28.50;;
18251;SDS011;26917;52.328;20.878;2022-09-25T06:28:29;47.97;;;28.08;;
18251;SDS011;26917;52.328;20.878;2022-09-25T06:30:58;59.95;;;31.30;;
18251;SDS011;26917;52.328;20.878;2022-09-25T06:33:27;58.42;;;31.13;;
18251;SDS011;26917;52.328;20.878;2022-09-25T06:35:55;53.75;;;30.70;;
18251;SDS011;26917;52.328;20.878;2022-09-25T06:38:24;53.55;;;28.08;;
18251;SDS011;26917;52.328;20.878;2022-09-25T06:40:52;44.03;;;26.95;;
18251;SDS011;26917;52.328;20.878;2022-09-25T06:43:25;44.08;;;26.38;;
18251;SDS011;26917;52.328;20.878;2022-09-25T06:45:57;46.95;;;26.17;;
18251;SDS011;26917;52.328;20.878;2022-09-25T06:48:28;43.63;;;26.25;;
18251;SDS011;26917;52.328;20.878;2022-09-25T06:50:57;43.85;;;25.00;;
18251;SDS011;26917;52.328;20.878;2022-09-25T06:53:27;44.78;;;24.95;;
18251;SDS011;26917;52.328;20.878;2022-09-25T06:55:56;42.42;;;25.95;;
18251;SDS011;26917;52.328;20.878;2022-09-25T06:58:26;47.67;;;25.20;;
18251;SDS011;26917;52.328;20.878;2022-09-25T07:00:57;47.67;;;27.10;;
18251;SDS011;26917;52.328;20.878;2022-09-25T07:03:25;54.33;;;26.75;;
18251;SDS011;26917;52.328;20.878;2022-09-25T07:06:14;46.05;;;26.75;;
18251;SDS011;26917;52.328;20.878;2022-09-25T07:08:43;44.65;;;26.27;;
18251;SDS011;26917;52.328;20.878;2022-09-25T07:11:16;42.50;;;27.05;;
18251;SDS011;26917;52.328;20.878;2022-09-25T07:13:46;42.42;;;26.33;;
18251;SDS011;26917;52.328;20.878;2022-09-25T07:16:23;45.78;;;25.58;;
18251;SDS011;26917;52.328;20.878;2022-09-25T07:18:55;52.38;;;28.95;;
18251;SDS011;26917;52.328;20.878;2022-09-25T07:21:26;45.53;;;27.25;;
18251;SDS011;26917;52.328;20.878;2022-09-25T07:23:56;50.17;;;28.13;;
18251;SDS011;26917;52.328;20.878;2022-09-25T07:26:25;41.28;;;26.33;;
18251;SDS011;26917;52.328;20.878;2022-09-25T07:28:55;38.47;;;24.85;;
18251;SDS011;26917;52.328;20.878;2022-09-25T07:31:27;45.50;;;26.35;;
18251;SDS011;26917;52.328;20.878;2022-09-25T07:33:58;50.83;;;26.65;;
18251;SDS011;26917;52.328;20.878;2022-09-25T07:36:34;42.60;;;27.55;;
18251;SDS011;26917;52.328;20.878;2022-09-25T07:39:04;40.63;;;26.05;;
18251;SDS011;26917;52.328;20.878;2022-09-25T07:41:33;41.70;;;26.23;;
18251;SDS011;26917;52.328;20.878;2022-09-25T07:44:02;48.85;;;26.02;;
18251;SDS011;26917;52.328;20.878;2022-09-25T07:46:52;41.95;;;25.88;;
18251;SDS011;26917;52.328;20.878;2022-09-25T07:49:21;39.88;;;25.10;;
18251;SDS011;26917;52.328;20.878;2022-09-25T07:51:49;42.17;;;24.10;;
18251;SDS011;26917;52.328;20.878;2022-09-25T07:54:17;39.60;;;23.42;;
18251;SDS011;26917;52.328;20.878;2022-09-25T07:56:46;36.65;;;21.92;;
18251;SDS011;26917;52.328;20.878;2022-09-25T07:59:14;35.35;;;22.02;;
18251;SDS011;26917;52.328;20.878;2022-09-25T08:01:42;36.47;;;22.25;;
18251;SDS011;26917;52.328;20.878;2022-09-25T08:04:19;34.83;;;21.90;;
18251;SDS011;26917;52.328;20.878;2022-09-25T08:06:48;33.35;;;21.27;;
18251;SDS011;26917;52.328;20.878;2022-09-25T08:09:16;35.25;;;20.70;;
18251;SDS011;26917;52.328;20.878;2022-09-25T08:11:44;33.17;;;20.75;;
18251;SDS011;26917;52.328;20.878;2022-09-25T08:14:12;31.70;;;19.92;;
18251;SDS011;26917;52.328;20.878;2022-09-25T08:16:41;32.83;;;20.48;;
18251;SDS011;26917;52.328;20.878;2022-09-25T08:19:09;33.28;;;20.15;;
18251;SDS011;26917;52.328;20.878;2022-09-25T08:21:40;32.03;;;19.05;;
18251;SDS011;26917;52.328;20.878;2022-09-25T08:24:18;25.42;;;17.30;;
18251;SDS011;26917;52.328;20.878;2022-09-25T08:26:46;27.30;;;18.05;;
18251;SDS011;26917;52.328;20.878;2022-09-25T08:29:15;30.40;;;17.70;;
18251;SDS011;26917;52.328;20.878;2022-09-25T08:31:43;28.42;;;17.48;;
18251;SDS011;26917;52.328;20.878;2022-09-25T08:34:12;27.80;;;16.88;;
18251;SDS011;26917;52.328;20.878;2022-09-25T08:37:05;25.63;;;17.05;;
18251;SDS011;26917;52.328;20.878;2022-09-25T08:39:33;21.00;;;13.50;;
18251;SDS011;26917;52.328;20.878;2022-09-25T08:42:02;20.45;;;13.68;;
18251;SDS011;26917;52.328;20.878;2022-09-25T08:44:34;21.65;;;13.35;;
18251;SDS011;26917;52.328;20.878;2022-09-25T08:47:07;18.23;;;11.80;;
18251;SDS011;26917;52.328;20.878;2022-09-25T08:49:59;20.65;;;13.18;;
18251;SDS011;26917;52.328;20.878;2022-09-25T08:52:33;19.73;;;12.43;;
18251;SDS011;26917;52.328;20.878;2022-09-25T08:55:02;19.92;;;14.07;;
18251;SDS011;26917;52.328;20.878;2022-09-25T08:57:36;20.30;;;12.73;;
18251;SDS011;26917;52.328;20.878;2022-09-25T09:00:15;20.02;;;12.15;;
18251;SDS011;26917;52.328;20.878;2022-09-25T09:02:50;19.88;;;12.40;;
18251;SDS011;26917;52.328;20.878;2022-09-25T09:05:23;17.77;;;11.52;;
18251;SDS011;26917;52.328;20.878;2022-09-25T09:07:56;19.15;;;11.55;;
18251;SDS011;26917;52.328;20.878;2022-09-25T09:10:29;14.63;;;11.00;;
18251;SDS011;26917;52.328;20.878;2022-09-25T09:13:03;12.70;;;9.55;;
18251;SDS011;26917;52.328;20.878;2022-09-25T09:15:42;11.77;;;7.90;;
18251;SDS011;26917;52.328;20.878;2022-09-25T09:18:17;13.77;;;8.00;;
18251;SDS011;26917;52.328;20.878;2022-09-25T09:20:50;11.90;;;8.77;;
18251;SDS011;26917;52.328;20.878;2022-09-25T09:23:21;8.75;;;6.50;;
18251;SDS011;26917;52.328;20.878;2022-09-25T09:26:00;13.18;;;7.15;;
18251;SDS011;26917;52.328;20.878;2022-09-25T09:28:53;10.23;;;6.85;;
18251;SDS011;26917;52.328;20.878;2022-09-25T09:31:51;8.98;;;6.85;;
18251;SDS011;26917;52.328;20.878;2022-09-25T09:34:34;13.00;;;7.07;;
18251;SDS011;26917;52.328;20.878;2022-09-25T09:37:34;8.85;;;6.57;;
18251;SDS011;26917;52.328;20.878;2022-09-25T09:40:19;8.38;;;6.10;;
18251;SDS011;26917;52.328;20.878;2022-09-25T09:42:57;9.20;;;6.15;;
18251;SDS011;26917;52.328;20.878;2022-09-25T09:45:35;8.95;;;7.13;;
18251;SDS011;26917;52.328;20.878;2022-09-25T09:48:14;9.65;;;6.65;;
18251;SDS011;26917;52.328;20.878;2022-09-25T09:50:46;10.93;;;7.90;;
18251;SDS011;26917;52.328;20.878;2022-09-25T09:53:27;9.90;;;7.60;;
18251;SDS011;26917;52.328;20.878;2022-09-25T09:56:02;11.70;;;7.75;;
18251;SDS011;26917;52.328;20.878;2022-09-25T09:58:37;11.32;;;8.07;;
18251;SDS011;26917;52.328;20.878;2022-09-25T10:01:30;10.90;;;7.93;;
18251;SDS011;26917;52.328;20.878;2022-09-25T10:04:07;9.52;;;6.82;;
18251;SDS011;26917;52.328;20.878;2022-09-25T10:06:38;12.65;;;7.65;;
18251;SDS011;26917;52.328;20.878;2022-09-25T10:09:13;9.70;;;7.38;;
18251;SDS011;26917;52.328;20.878;2022-09-25T10:11:44;8.88;;;6.45;;
18251;SDS011;26917;52.328;20.878;2022-09-25T10:14:28;10.88;;;7.20;;
18251;SDS011;26917;52.328;20.878;2022-09-25T10:16:59;13.05;;;7.22;;
18251;SDS011;26917;52.328;20.878;2022-09-25T10:19:38;8.80;;;6.35;;
18251;SDS011;26917;52.328;20.878;2022-09-25T10:22:20;11.68;;;6.55;;
18251;SDS011;26917;52.328;20.878;2022-09-25T10:24:53;10.32;;;7.47;;
18251;SDS011;26917;52.328;20.878;2022-09-25T10:27:30;9.20;;;6.63;;
18251;SDS011;26917;52.328;20.878;2022-09-25T10:30:14;9.05;;;7.00;;
18251;SDS011;26917;52.328;20.878;2022-09-25T10:32:50;9.68;;;6.93;;
18251;SDS011;26917;52.328;20.878;2022-09-25T10:35:24;7.60;;;5.97;;
18251;SDS011;26917;52.328;20.878;2022-09-25T10:37:57;8.68;;;6.10;;
18251;SDS011;26917;52.328;20.878;2022-09-25T10:40:28;9.73;;;6.65;;
18251;SDS011;26917;52.328;20.878;2022-09-25T10:43:03;8.90;;;6.22;;
18251;SDS011;26917;52.328;20.878;2022-09-25T10:45:33;8.02;;;5.63;;
18251;SDS011;26917;52.328;20.878;2022-09-25T10:48:20;9.98;;;6.47;;
18251;SDS011;26917;52.328;20.878;2022-09-25T10:51:10;8.35;;;5.13;;
18251;SDS011;26917;52.328;20.878;2022-09-25T10:53:43;7.97;;;5.57;;
18251;SDS011;26917;52.328;20.878;2022-09-25T10:56:13;8.70;;;5.53;;
18251;SDS011;26917;52.328;20.878;2022-09-25T10:58:46;7.60;;;5.40;;
18251;SDS011;26917;52.328;20.878;2022-09-25T11:01:20;5.97;;;5.00;;
18251;SDS011;26917;52.328;20.878;2022-09-25T11:03:56;8.20;;;6.18;;
18251;SDS011;26917;52.328;20.878;2022-09-25T11:06:25;10.45;;;5.57;;
18251;SDS011;26917;52.328;20.878;2022-09-25T11:08:59;13.13;;;6.35;;
18251;SDS011;26917;52.328;20.878;2022-09-25T11:11:39;8.43;;;6.30;;
18251;SDS011;26917;52.328;20.878;2022-09-25T11:14:22;6.80;;;5.50;;
18251;SDS011;26917;52.328;20.878;2022-09-25T11:16:58;8.95;;;5.40;;
18251;SDS011;26917;52.328;20.878;2022-09-25T11:19:32;7.60;;;5.07;;
18251;SDS011;26917;52.328;20.878;2022-09-25T11:22:04;8.23;;;5.43;;
18251;SDS011;26917;52.328;20.878;2022-09-25T11:24:43;7.20;;;5.50;;
18251;SDS011;26917;52.328;20.878;2022-09-25T11:27:28;7.60;;;5.32;;
18251;SDS011;26917;52.328;20.878;2022-09-25T11:30:16;9.13;;;5.50;;
18251;SDS011;26917;52.328;20.878;2022-09-25T11:32:47;7.78;;;5.80;;
18251;SDS011;26917;52.328;20.878;2022-09-25T11:35:31;8.85;;;6.03;;
18251;SDS011;26917;52.328;20.878;2022-09-25T11:38:19;7.18;;;5.55;;
18251;SDS011;26917;52.328;20.878;2022-09-25T11:41:11;7.55;;;6.10;;
18251;SDS011;26917;52.328;20.878;2022-09-25T11:43:58;8.27;;;6.28;;
18251;SDS011;26917;52.328;20.878;2022-09-25T11:46:38;9.88;;;6.10;;
18251;SDS011;26917;52.328;20.878;2022-09-25T11:49:21;9.18;;;5.88;;
18251;SDS011;26917;52.328;20.878;2022-09-25T11:52:05;5.78;;;4.85;;
18251;SDS011;26917;52.328;20.878;2022-09-25T11:55:14;7.07;;;5.20;;
18251;SDS011;26917;52.328;20.878;2022-09-25T11:58:27;8.30;;;5.38;;
18251;SDS011;26917;52.328;20.878;2022-09-25T12:01:18;6.88;;;5.10;;
18251;SDS011;26917;52.328;20.878;2022-09-25T12:03:59;6.82;;;5.63;;
18251;SDS011;26917;52.328;20.878;2022-09-25T12:06:53;5.03;;;4.28;;
18251;SDS011;26917;52.328;20.878;2022-09-25T12:09:40;7.28;;;5.25;;
18251;SDS011;26917;52.328;20.878;2022-09-25T12:12:19;7.30;;;4.75;;
18251;SDS011;26917;52.328;20.878;2022-09-25T12:14:58;8.70;;;5.05;;
18251;SDS011;26917;52.328;20.878;2022-09-25T12:17:31;7.05;;;4.65;;
18251;SDS011;26917;52.328;20.878;2022-09-25T12:20:13;5.97;;;4.80;;
18251;SDS011;26917;52.328;20.878;2022-09-25T12:22:49;5.60;;;4.47;;
18251;SDS011;26917;52.328;20.878;2022-09-25T12:25:32;8.60;;;4.90;;
18251;SDS011;26917;52.328;20.878;2022-09-25T12:28:13;6.18;;;5.18;;
18251;SDS011;26917;52.328;20.878;2022-09-25T12:30:52;8.00;;;5.38;;
18251;SDS011;26917;52.328;20.878;2022-09-25T12:33:37;8.95;;;4.93;;
18251;SDS011;26917;52.328;20.878;2022-09-25T12:36:16;10.23;;;5.22;;
18251;SDS011;26917;52.328;20.878;2022-09-25T12:38:49;7.25;;;5.40;;
18251;SDS011;26917;52.328;20.878;2022-09-25T12:41:22;7.68;;;5.90;;
18251;SDS011;26917;52.328;20.878;2022-09-25T12:43:57;7.47;;;5.28;;
18251;SDS011;26917;52.328;20.878;2022-09-25T12:46:31;6.93;;;5.25;;
18251;SDS011;26917;52.328;20.878;2022-09-25T12:49:08;10.82;;;6.30;;
18251;SDS011;26917;52.328;20.878;2022-09-25T12:51:54;8.82;;;5.85;;
18251;SDS011;26917;52.328;20.878;2022-09-25T12:55:25;9.38;;;6.25;;
18251;SDS011;26917;52.328;20.878;2022-09-25T12:58:03;9.23;;;6.57;;
18251;SDS011;26917;52.328;20.878;2022-09-25T13:01:27;9.43;;;6.30;;
18251;SDS011;26917;52.328;20.878;2022-09-25T13:04:22;8.43;;;5.65;;
18251;SDS011;26917;52.328;20.878;2022-09-25T13:08:14;7.93;;;5.60;;
18251;SDS011;26917;52.328;20.878;2022-09-25T13:11:03;7.53;;;5.57;;
18251;SDS011;26917;52.328;20.878;2022-09-25T13:13:59;9.40;;;5.80;;
18251;SDS011;26917;52.328;20.878;2022-09-25T13:16:48;7.70;;;5.50;;
18251;SDS011;26917;52.328;20.878;2022-09-25T13:19:26;11.70;;;5.90;;
18251;SDS011;26917;52.328;20.878;2022-09-25T13:22:06;7.05;;;5.18;;
18251;SDS011;26917;52.328;20.878;2022-09-25T13:25:17;6.82;;;5.80;;
18251;SDS011;26917;52.328;20.878;2022-09-25T13:27:53;7.45;;;5.63;;
18251;SDS011;26917;52.328;20.878;2022-09-25T13:34:15;10.48;;;5.63;;
18251;SDS011;26917;52.328;20.878;2022-09-25T13:37:41;6.93;;;5.45;;
18251;SDS011;26917;52.328;20.878;2022-09-25T13:40:20;9.15;;;6.00;;
18251;SDS011;26917;52.328;20.878;2022-09-25T13:43:39;12.75;;;6.53;;
18251;SDS011;26917;52.328;20.878;2022-09-25T13:55:34;9.55;;;5.78;;
18251;SDS011;26917;52.328;20.878;2022-09-25T14:13:20;8.27;;;5.50;;
18251;SDS011;26917;52.328;20.878;2022-09-25T14:16:56;8.85;;;5.95;;
18251;SDS011;26917;52.328;20.878;2022-09-25T14:19:38;9.45;;;5.88;;
18251;SDS011;26917;52.328;20.878;2022-09-25T14:33:11;8.38;;;6.30;;
18251;SDS011;26917;52.328;20.878;2022-09-25T14:36:03;8.48;;;6.53;;
18251;SDS011;26917;52.328;20.878;2022-09-25T14:39:03;9.23;;;6.55;;
18251;SDS011;26917;52.328;20.878;2022-09-25T14:42:38;8.90;;;6.10;;
18251;SDS011;26917;52.328;20.878;2022-09-25T14:53:26;6.85;;;5.68;;
18251;SDS011;26917;52.328;20.878;2022-09-25T14:56:12;8.95;;;6.55;;
18251;SDS011;26917;52.328;20.878;2022-09-25T15:03:47;7.63;;;6.03;;
18251;SDS011;26917;52.328;20.878;2022-09-25T15:07:12;8.68;;;6.45;;
18251;SDS011;26917;52.328;20.878;2022-09-25T15:23:18;8.05;;;6.47;;
18251;SDS011;26917;52.328;20.878;2022-09-25T15:27:15;9.40;;;7.47;;
18251;SDS011;26917;52.328;20.878;2022-09-25T15:30:29;10.43;;;7.30;;
18251;SDS011;26917;52.328;20.878;2022-09-25T15:33:26;8.63;;;7.00;;
18251;SDS011;26917;52.328;20.878;2022-09-25T15:37:21;12.88;;;8.35;;
18251;SDS011;26917;52.328;20.878;2022-09-25T15:44:40;9.82;;;8.18;;
18251;SDS011;26917;52.328;20.878;2022-09-25T15:51:47;10.40;;;7.30;;
18251;SDS011;26917;52.328;20.878;2022-09-25T15:54:41;12.13;;;7.72;;
18251;SDS011;26917;52.328;20.878;2022-09-25T15:57:16;11.95;;;8.32;;
18251;SDS011;26917;52.328;20.878;2022-09-25T16:00:35;10.23;;;8.45;;
18251;SDS011;26917;52.328;20.878;2022-09-25T16:03:51;9.63;;;7.93;;
18251;SDS011;26917;52.328;20.878;2022-09-25T16:06:40;12.50;;;8.70;;
18251;SDS011;26917;52.328;20.878;2022-09-25T16:20:37;12.05;;;9.30;;
18251;SDS011;26917;52.328;20.878;2022-09-25T16:23:32;11.98;;;8.70;;
18251;SDS011;26917;52.328;20.878;2022-09-25T16:26:34;17.77;;;9.13;;
18251;SDS011;26917;52.328;20.878;2022-09-25T16:29:20;13.55;;;9.18;;
18251;SDS011;26917;52.328;20.878;2022-09-25T16:32:45;18.08;;;10.65;;
18251;SDS011;26917;52.328;20.878;2022-09-25T16:37:20;12.77;;;9.68;;
18251;SDS011;26917;52.328;20.878;2022-09-25T16:39:21;15.70;;;9.95;;
18251;SDS011;26917;52.328;20.878;2022-09-25T16:42:28;14.93;;;9.13;;
18251;SDS011;26917;52.328;20.878;2022-09-25T16:45:59;14.65;;;10.43;;
18251;SDS011;26917;52.328;20.878;2022-09-25T16:48:58;14.85;;;10.65;;